This is the latest recevied weather packets stored in our database for station/object OK1UOJ. If no packets are shown the sender has not sent any weather packets the latest 1 day(s).
| Time | Temp. | Humidity | Pressure | Rain* | Wind** | Luminosity | Snow |
|---|---|---|---|---|---|---|---|
| 1778079450 | 19.44° C | 10% | - | - | - | - | - |
| 1778078612 | 19.44° C | 10% | - | - | - | - | - |
| 1778077782 | 21.67° C | 92% | 1007.1 hPa | - | - | - | - |
| 1778076943 | 21.67° C | 86% | 1007.1 hPa | - | - | - | - |
| 1778076665 | 21.67° C | 91% | 1007.2 hPa | - | - | - | - |
| 1778076391 | 21.67° C | 87% | 1007.2 hPa | - | - | - | - |
| 1778076386 | 21.67° C | 87% | 1007.2 hPa | - | - | - | - |
| 1778075274 | 21.67° C | 75% | 1007.3 hPa | - | - | - | - |
| 1778074995 | 21.67° C | 73% | 1007.3 hPa | - | - | - | - |
| 1778071933 | 22.22° C | 87% | 1008.1 hPa | - | - | - | - |
| 1778071377 | 22.78° C | 61% | 1008.2 hPa | - | - | - | - |
| 1778070819 | 23.33° C | 59% | 1008.3 hPa | - | - | - | - |
| 1778069988 | 22.78° C | 67% | 1008.4 hPa | - | - | - | - |
| 1778069983 | 22.78° C | 67% | 1008.4 hPa | - | - | - | - |
| 1778069709 | 22.22° C | 68% | 1008.4 hPa | - | - | - | - |
| 1778069426 | 22.22° C | 71% | 1008.4 hPa | - | - | - | - |
| 1778068033 | 23.89° C | 54% | 1008.5 hPa | - | - | - | - |
| 1778067474 | 24.44° C | 57% | 1008.6 hPa | - | - | - | - |
| 1778067195 | 25° C | 61% | 1008.6 hPa | - | - | - | - |
| 1778064968 | 25° C | 58% | 1009 hPa | - | - | - | - |
| 1778062731 | 23.89° C | 66% | 1009.4 hPa | - | - | - | - |
| 1778061620 | 23.33° C | 80% | 1009.6 hPa | - | - | - | - |
| 1778060505 | 22.78° C | 84% | 1009.6 hPa | - | - | - | - |
| 1778059942 | 23.33° C | 84% | 1009.5 hPa | - | - | - | - |
| 1778058832 | 21.11° C | 10% | - | - | - | - | - |
* Rain since midnight (hover to see other rain measurements)
** Current wind speed in m/s (hover to see current wind gust speed)